sensor_id;sensor_type;location;lat;lon;timestamp;temperature;humidity
24904;DHT22;12960;50.322;11.124;2022-07-05T00:00:52;18.80;9.90
24904;DHT22;12960;50.322;11.124;2022-07-05T00:01:53;18.80;1.00
24904;DHT22;12960;50.322;11.124;2022-07-05T00:03:00;18.80;1.00
24904;DHT22;12960;50.322;11.124;2022-07-05T00:04:07;18.80;1.00
24904;DHT22;12960;50.322;11.124;2022-07-05T00:05:08;18.80;1.00
24904;DHT22;12960;50.322;11.124;2022-07-05T00:06:09;18.80;1.00
24904;DHT22;12960;50.322;11.124;2022-07-05T00:07:10;18.70;1.00
24904;DHT22;12960;50.322;11.124;2022-07-05T00:08:20;18.80;1.00
24904;DHT22;12960;50.322;11.124;2022-07-05T00:09:21;18.80;1.00
24904;DHT22;12960;50.322;11.124;2022-07-05T00:10:22;18.80;1.00
24904;DHT22;12960;50.322;11.124;2022-07-05T00:11:24;18.70;5.40
24904;DHT22;12960;50.322;11.124;2022-07-05T00:12:31;18.90;3.40
24904;DHT22;12960;50.322;11.124;2022-07-05T00:13:35;18.90;1.90
24904;DHT22;12960;50.322;11.124;2022-07-05T00:14:36;18.90;1.00
24904;DHT22;12960;50.322;11.124;2022-07-05T00:15:37;18.90;4.40
24904;DHT22;12960;50.322;11.124;2022-07-05T00:16:38;18.80;8.10
24904;DHT22;12960;50.322;11.124;2022-07-05T00:17:42;18.80;7.90
24904;DHT22;12960;50.322;11.124;2022-07-05T00:18:43;18.70;1.00
24904;DHT22;12960;50.322;11.124;2022-07-05T00:19:53;18.70;1.00
24904;DHT22;12960;50.322;11.124;2022-07-05T00:20:54;18.70;6.30
24904;DHT22;12960;50.322;11.124;2022-07-05T00:21:55;18.60;16.60
24904;DHT22;12960;50.322;11.124;2022-07-05T00:22:59;18.60;1.60
24904;DHT22;12960;50.322;11.124;2022-07-05T00:24:00;18.60;7.30
24904;DHT22;12960;50.322;11.124;2022-07-05T00:25:01;18.60;8.40
24904;DHT22;12960;50.322;11.124;2022-07-05T00:26:03;18.60;9.80
24904;DHT22;12960;50.322;11.124;2022-07-05T00:27:04;18.60;22.50
24904;DHT22;12960;50.322;11.124;2022-07-05T00:28:05;18.70;17.50
24904;DHT22;12960;50.322;11.124;2022-07-05T00:29:06;18.60;26.90
24904;DHT22;12960;50.322;11.124;2022-07-05T00:30:09;18.60;32.10
24904;DHT22;12960;50.322;11.124;2022-07-05T00:31:10;18.50;13.40
24904;DHT22;12960;50.322;11.124;2022-07-05T00:32:11;18.50;32.30
24904;DHT22;12960;50.322;11.124;2022-07-05T00:33:12;18.50;21.70
24904;DHT22;12960;50.322;11.124;2022-07-05T00:34:22;18.50;26.40
24904;DHT22;12960;50.322;11.124;2022-07-05T00:35:23;18.50;15.00
24904;DHT22;12960;50.322;11.124;2022-07-05T00:36:24;18.50;21.90
24904;DHT22;12960;50.322;11.124;2022-07-05T00:37:28;18.50;19.30
24904;DHT22;12960;50.322;11.124;2022-07-05T00:38:29;18.50;20.80
24904;DHT22;12960;50.322;11.124;2022-07-05T00:39:34;18.50;14.80
24904;DHT22;12960;50.322;11.124;2022-07-05T00:40:35;18.50;20.50
24904;DHT22;12960;50.322;11.124;2022-07-05T00:41:36;18.50;20.80
24904;DHT22;12960;50.322;11.124;2022-07-05T00:42:38;18.40;19.50
24904;DHT22;12960;50.322;11.124;2022-07-05T00:43:54;18.40;50.60
24904;DHT22;12960;50.322;11.124;2022-07-05T00:44:55;18.30;34.60
24904;DHT22;12960;50.322;11.124;2022-07-05T00:45:56;18.30;30.30
24904;DHT22;12960;50.322;11.124;2022-07-05T00:47:01;18.20;35.80
24904;DHT22;12960;50.322;11.124;2022-07-05T00:48:03;18.20;39.10
24904;DHT22;12960;50.322;11.124;2022-07-05T00:49:05;18.10;39.50
24904;DHT22;12960;50.322;11.124;2022-07-05T00:50:07;18.20;30.90
24904;DHT22;12960;50.322;11.124;2022-07-05T00:51:09;18.20;34.10
24904;DHT22;12960;50.322;11.124;2022-07-05T00:52:12;18.20;41.40
24904;DHT22;12960;50.322;11.124;2022-07-05T00:53:13;18.30;37.70
24904;DHT22;12960;50.322;11.124;2022-07-05T00:54:14;18.20;32.30
24904;DHT22;12960;50.322;11.124;2022-07-05T00:55:15;18.20;54.70
24904;DHT22;12960;50.322;11.124;2022-07-05T00:56:18;18.10;45.30
24904;DHT22;12960;50.322;11.124;2022-07-05T00:57:21;18.10;40.80
24904;DHT22;12960;50.322;11.124;2022-07-05T00:58:22;18.10;48.20
24904;DHT22;12960;50.322;11.124;2022-07-05T00:59:24;18.10;66.70
24904;DHT22;12960;50.322;11.124;2022-07-05T01:00:25;18.10;44.60
24904;DHT22;12960;50.322;11.124;2022-07-05T01:01:29;18.10;63.80
24904;DHT22;12960;50.322;11.124;2022-07-05T01:02:31;18.10;41.70
24904;DHT22;12960;50.322;11.124;2022-07-05T01:03:32;18.00;43.30
24904;DHT22;12960;50.322;11.124;2022-07-05T01:04:33;18.00;45.40
24904;DHT22;12960;50.322;11.124;2022-07-05T01:05:37;18.00;43.00
24904;DHT22;12960;50.322;11.124;2022-07-05T01:06:40;18.00;76.40
24904;DHT22;12960;50.322;11.124;2022-07-05T01:07:43;18.00;54.10
24904;DHT22;12960;50.322;11.124;2022-07-05T01:08:45;17.90;59.00
24904;DHT22;12960;50.322;11.124;2022-07-05T01:09:46;17.90;67.40
24904;DHT22;12960;50.322;11.124;2022-07-05T01:10:47;17.90;83.50
24904;DHT22;12960;50.322;11.124;2022-07-05T01:11:50;17.80;69.30
24904;DHT22;12960;50.322;11.124;2022-07-05T01:12:51;17.80;82.70
24904;DHT22;12960;50.322;11.124;2022-07-05T01:13:53;17.70;74.40
24904;DHT22;12960;50.322;11.124;2022-07-05T01:14:55;17.70;66.60
24904;DHT22;12960;50.322;11.124;2022-07-05T01:15:56;17.60;70.90
24904;DHT22;12960;50.322;11.124;2022-07-05T01:16:59;17.70;75.30
24904;DHT22;12960;50.322;11.124;2022-07-05T01:18:00;17.60;90.70
24904;DHT22;12960;50.322;11.124;2022-07-05T01:19:01;17.50;93.40
24904;DHT22;12960;50.322;11.124;2022-07-05T01:20:07;17.50;91.90
24904;DHT22;12960;50.322;11.124;2022-07-05T01:21:13;17.50;98.80
24904;DHT22;12960;50.322;11.124;2022-07-05T01:22:18;17.40;99.90
24904;DHT22;12960;50.322;11.124;2022-07-05T01:23:20;17.40;99.90
24904;DHT22;12960;50.322;11.124;2022-07-05T01:24:22;17.30;99.90
24904;DHT22;12960;50.322;11.124;2022-07-05T01:25:26;17.20;99.90
24904;DHT22;12960;50.322;11.124;2022-07-05T01:26:28;17.20;99.90
24904;DHT22;12960;50.322;11.124;2022-07-05T01:27:29;17.10;99.90
24904;DHT22;12960;50.322;11.124;2022-07-05T01:28:31;17.10;99.90
24904;DHT22;12960;50.322;11.124;2022-07-05T01:29:32;17.10;99.90
24904;DHT22;12960;50.322;11.124;2022-07-05T01:30:35;17.00;99.90
24904;DHT22;12960;50.322;11.124;2022-07-05T01:31:37;17.00;99.90
24904;DHT22;12960;50.322;11.124;2022-07-05T01:32:38;17.00;99.90
24904;DHT22;12960;50.322;11.124;2022-07-05T01:33:39;16.90;99.90
24904;DHT22;12960;50.322;11.124;2022-07-05T01:34:41;16.90;99.90
24904;DHT22;12960;50.322;11.124;2022-07-05T01:35:45;17.00;99.90
24904;DHT22;12960;50.322;11.124;2022-07-05T01:36:46;17.40;99.90
24904;DHT22;12960;50.322;11.124;2022-07-05T01:37:48;17.50;99.90
24904;DHT22;12960;50.322;11.124;2022-07-05T01:38:50;17.50;99.90
24904;DHT22;12960;50.322;11.124;2022-07-05T01:39:51;17.60;99.90
24904;DHT22;12960;50.322;11.124;2022-07-05T01:40:56;17.60;99.90
24904;DHT22;12960;50.322;11.124;2022-07-05T01:41:57;17.60;99.90
24904;DHT22;12960;50.322;11.124;2022-07-05T01:42:59;17.70;99.90
24904;DHT22;12960;50.322;11.124;2022-07-05T01:44:00;17.80;99.90
24904;DHT22;12960;50.322;11.124;2022-07-05T01:45:02;17.60;99.90
24904;DHT22;12960;50.322;11.124;2022-07-05T01:46:04;17.60;99.90
24904;DHT22;12960;50.322;11.124;2022-07-05T01:47:06;17.50;99.90
24904;DHT22;12960;50.322;11.124;2022-07-05T01:48:10;17.40;99.90
24904;DHT22;12960;50.322;11.124;2022-07-05T01:49:15;17.30;99.90
24904;DHT22;12960;50.322;11.124;2022-07-05T01:50:21;17.30;99.90
24904;DHT22;12960;50.322;11.124;2022-07-05T01:51:26;17.40;99.90
24904;DHT22;12960;50.322;11.124;2022-07-05T01:52:42;17.50;99.90
24904;DHT22;12960;50.322;11.124;2022-07-05T01:53:44;17.60;99.90
24904;DHT22;12960;50.322;11.124;2022-07-05T01:54:47;17.70;99.90
24904;DHT22;12960;50.322;11.124;2022-07-05T01:55:50;17.70;99.90
24904;DHT22;12960;50.322;11.124;2022-07-05T01:56:54;17.70;99.90
24904;DHT22;12960;50.322;11.124;2022-07-05T01:57:55;17.70;99.90
24904;DHT22;12960;50.322;11.124;2022-07-05T01:58:57;17.70;99.90
24904;DHT22;12960;50.322;11.124;2022-07-05T01:59:58;17.70;99.90
24904;DHT22;12960;50.322;11.124;2022-07-05T02:00:59;17.70;99.90
24904;DHT22;12960;50.322;11.124;2022-07-05T02:02:01;17.60;99.90
24904;DHT22;12960;50.322;11.124;2022-07-05T02:03:02;17.60;99.90
24904;DHT22;12960;50.322;11.124;2022-07-05T02:04:08;17.60;99.90
24904;DHT22;12960;50.322;11.124;2022-07-05T02:05:10;17.50;99.90
24904;DHT22;12960;50.322;11.124;2022-07-05T02:06:11;17.40;99.90
24904;DHT22;12960;50.322;11.124;2022-07-05T02:07:12;17.30;99.90
24904;DHT22;12960;50.322;11.124;2022-07-05T02:08:14;17.20;99.90
24904;DHT22;12960;50.322;11.124;2022-07-05T02:09:18;16.90;99.90
24904;DHT22;12960;50.322;11.124;2022-07-05T02:10:19;16.60;99.90
24904;DHT22;12960;50.322;11.124;2022-07-05T02:11:20;16.40;99.90
24904;DHT22;12960;50.322;11.124;2022-07-05T02:12:21;16.30;99.90
24904;DHT22;12960;50.322;11.124;2022-07-05T02:13:22;16.20;99.90
24904;DHT22;12960;50.322;11.124;2022-07-05T02:14:23;16.10;99.90
24904;DHT22;12960;50.322;11.124;2022-07-05T02:15:24;16.00;99.90
24904;DHT22;12960;50.322;11.124;2022-07-05T02:16:26;16.00;99.90
24904;DHT22;12960;50.322;11.124;2022-07-05T02:17:28;15.90;99.90
24904;DHT22;12960;50.322;11.124;2022-07-05T02:18:29;15.90;99.90
24904;DHT22;12960;50.322;11.124;2022-07-05T02:19:30;15.90;1.00
24904;DHT22;12960;50.322;11.124;2022-07-05T02:20:32;15.80;99.90
24904;DHT22;12960;50.322;11.124;2022-07-05T02:21:33;15.80;99.90
24904;DHT22;12960;50.322;11.124;2022-07-05T02:22:34;15.80;99.90
24904;DHT22;12960;50.322;11.124;2022-07-05T02:23:35;15.80;1.00
24904;DHT22;12960;50.322;11.124;2022-07-05T02:24:36;15.80;1.00
24904;DHT22;12960;50.322;11.124;2022-07-05T02:25:42;15.90;1.00
24904;DHT22;12960;50.322;11.124;2022-07-05T02:26:43;16.00;1.00
24904;DHT22;12960;50.322;11.124;2022-07-05T02:27:44;16.00;1.00
24904;DHT22;12960;50.322;11.124;2022-07-05T02:28:46;16.00;1.00
24904;DHT22;12960;50.322;11.124;2022-07-05T02:29:47;16.00;1.00
24904;DHT22;12960;50.322;11.124;2022-07-05T02:30:50;16.00;1.00
24904;DHT22;12960;50.322;11.124;2022-07-05T02:31:52;15.90;99.90
24904;DHT22;12960;50.322;11.124;2022-07-05T02:32:53;15.80;99.90
24904;DHT22;12960;50.322;11.124;2022-07-05T02:34:00;15.80;1.00
24904;DHT22;12960;50.322;11.124;2022-07-05T02:35:02;15.70;1.00
24904;DHT22;12960;50.322;11.124;2022-07-05T02:37:09;15.60;1.00
24904;DHT22;12960;50.322;11.124;2022-07-05T02:38:15;15.40;1.00
24904;DHT22;12960;50.322;11.124;2022-07-05T02:39:17;15.40;1.00
24904;DHT22;12960;50.322;11.124;2022-07-05T02:40:24;15.30;1.00
24904;DHT22;12960;50.322;11.124;2022-07-05T02:41:25;15.20;21.40
24904;DHT22;12960;50.322;11.124;2022-07-05T02:42:26;15.20;62.50
24904;DHT22;12960;50.322;11.124;2022-07-05T02:43:27;15.10;99.90
24904;DHT22;12960;50.322;11.124;2022-07-05T02:44:37;15.10;99.90
24904;DHT22;12960;50.322;11.124;2022-07-05T02:45:38;15.10;99.90
24904;DHT22;12960;50.322;11.124;2022-07-05T02:46:39;15.00;99.90
24904;DHT22;12960;50.322;11.124;2022-07-05T02:47:40;15.10;99.90
24904;DHT22;12960;50.322;11.124;2022-07-05T02:48:41;15.10;99.90
24904;DHT22;12960;50.322;11.124;2022-07-05T02:49:42;15.00;99.90
24904;DHT22;12960;50.322;11.124;2022-07-05T02:50:43;15.00;99.90
24904;DHT22;12960;50.322;11.124;2022-07-05T02:51:44;15.00;99.90
24904;DHT22;12960;50.322;11.124;2022-07-05T02:52:45;15.00;99.90
24904;DHT22;12960;50.322;11.124;2022-07-05T02:53:52;15.00;99.90
24904;DHT22;12960;50.322;11.124;2022-07-05T02:54:53;14.90;99.90
24904;DHT22;12960;50.322;11.124;2022-07-05T02:55:55;14.80;99.90
24904;DHT22;12960;50.322;11.124;2022-07-05T02:56:56;14.90;51.60
24904;DHT22;12960;50.322;11.124;2022-07-05T02:57:57;14.90;47.90
24904;DHT22;12960;50.322;11.124;2022-07-05T02:58:58;14.90;99.90
24904;DHT22;12960;50.322;11.124;2022-07-05T02:59:59;14.90;99.90
24904;DHT22;12960;50.322;11.124;2022-07-05T03:01:00;14.90;99.90
24904;DHT22;12960;50.322;11.124;2022-07-05T03:02:01;14.90;99.90
24904;DHT22;12960;50.322;11.124;2022-07-05T03:03:02;14.90;99.90
24904;DHT22;12960;50.322;11.124;2022-07-05T03:04:03;14.90;99.90
24904;DHT22;12960;50.322;11.124;2022-07-05T03:05:05;15.00;1.00
24904;DHT22;12960;50.322;11.124;2022-07-05T03:06:06;14.90;99.90
24904;DHT22;12960;50.322;11.124;2022-07-05T03:07:07;14.90;99.90
24904;DHT22;12960;50.322;11.124;2022-07-05T03:08:08;14.90;99.90
24904;DHT22;12960;50.322;11.124;2022-07-05T03:09:09;14.90;99.90
24904;DHT22;12960;50.322;11.124;2022-07-05T03:10:11;14.90;99.90
24904;DHT22;12960;50.322;11.124;2022-07-05T03:11:15;14.90;99.90
24904;DHT22;12960;50.322;11.124;2022-07-05T03:12:16;14.80;99.90
24904;DHT22;12960;50.322;11.124;2022-07-05T03:13:17;14.90;99.90
24904;DHT22;12960;50.322;11.124;2022-07-05T03:14:18;14.80;99.90
24904;DHT22;12960;50.322;11.124;2022-07-05T03:15:19;14.80;99.90
24904;DHT22;12960;50.322;11.124;2022-07-05T03:16:20;14.70;99.90
24904;DHT22;12960;50.322;11.124;2022-07-05T03:17:23;14.70;99.90
24904;DHT22;12960;50.322;11.124;2022-07-05T03:18:24;14.70;99.90
24904;DHT22;12960;50.322;11.124;2022-07-05T03:19:25;14.70;99.90
24904;DHT22;12960;50.322;11.124;2022-07-05T03:20:26;14.60;99.90
24904;DHT22;12960;50.322;11.124;2022-07-05T03:21:30;14.60;99.90
24904;DHT22;12960;50.322;11.124;2022-07-05T03:22:31;14.60;99.90
24904;DHT22;12960;50.322;11.124;2022-07-05T03:23:32;14.70;99.90
24904;DHT22;12960;50.322;11.124;2022-07-05T03:24:33;14.70;1.00
24904;DHT22;12960;50.322;11.124;2022-07-05T03:25:37;14.70;99.90
24904;DHT22;12960;50.322;11.124;2022-07-05T03:26:43;14.80;99.90
24904;DHT22;12960;50.322;11.124;2022-07-05T03:27:45;14.80;1.00
24904;DHT22;12960;50.322;11.124;2022-07-05T03:28:46;14.70;99.90
24904;DHT22;12960;50.322;11.124;2022-07-05T03:29:47;14.70;1.00
24904;DHT22;12960;50.322;11.124;2022-07-05T03:30:48;14.60;1.00
24904;DHT22;12960;50.322;11.124;2022-07-05T03:31:49;14.60;1.00
24904;DHT22;12960;50.322;11.124;2022-07-05T03:32:50;14.60;1.00
24904;DHT22;12960;50.322;11.124;2022-07-05T03:33:51;14.60;1.00
24904;DHT22;12960;50.322;11.124;2022-07-05T03:34:52;14.60;1.00
24904;DHT22;12960;50.322;11.124;2022-07-05T03:35:53;14.60;1.00
24904;DHT22;12960;50.322;11.124;2022-07-05T03:36:57;14.60;1.00
24904;DHT22;12960;50.322;11.124;2022-07-05T03:38:04;14.50;1.00
24904;DHT22;12960;50.322;11.124;2022-07-05T03:39:05;14.60;5.70
24904;DHT22;12960;50.322;11.124;2022-07-05T03:40:06;14.60;1.00
24904;DHT22;12960;50.322;11.124;2022-07-05T03:41:08;14.50;1.00
24904;DHT22;12960;50.322;11.124;2022-07-05T03:42:09;14.50;1.00
24904;DHT22;12960;50.322;11.124;2022-07-05T03:43:10;14.50;1.00
24904;DHT22;12960;50.322;11.124;2022-07-05T03:44:16;14.40;1.00
24904;DHT22;12960;50.322;11.124;2022-07-05T03:45:20;14.40;1.00
24904;DHT22;12960;50.322;11.124;2022-07-05T03:46:21;14.40;99.90
24904;DHT22;12960;50.322;11.124;2022-07-05T03:47:22;14.40;99.90
24904;DHT22;12960;50.322;11.124;2022-07-05T03:48:23;14.40;99.90
24904;DHT22;12960;50.322;11.124;2022-07-05T03:49:27;14.40;99.90
24904;DHT22;12960;50.322;11.124;2022-07-05T03:50:28;14.40;99.90
24904;DHT22;12960;50.322;11.124;2022-07-05T03:51:29;14.40;99.90
24904;DHT22;12960;50.322;11.124;2022-07-05T03:52:33;14.40;99.90
24904;DHT22;12960;50.322;11.124;2022-07-05T03:53:37;14.50;99.90
24904;DHT22;12960;50.322;11.124;2022-07-05T03:54:38;14.40;99.90
24904;DHT22;12960;50.322;11.124;2022-07-05T03:55:39;14.40;1.00
24904;DHT22;12960;50.322;11.124;2022-07-05T03:56:46;14.30;23.40
24904;DHT22;12960;50.322;11.124;2022-07-05T03:57:47;14.30;99.90
24904;DHT22;12960;50.322;11.124;2022-07-05T03:58:51;14.20;2.50
24904;DHT22;12960;50.322;11.124;2022-07-05T03:59:52;14.10;1.00
24904;DHT22;12960;50.322;11.124;2022-07-05T04:00:59;14.10;99.90
24904;DHT22;12960;50.322;11.124;2022-07-05T04:02:00;14.10;99.90
24904;DHT22;12960;50.322;11.124;2022-07-05T04:03:02;14.00;99.90
24904;DHT22;12960;50.322;11.124;2022-07-05T04:04:03;14.00;99.90
24904;DHT22;12960;50.322;11.124;2022-07-05T04:05:07;14.00;99.90
24904;DHT22;12960;50.322;11.124;2022-07-05T04:06:09;13.90;99.90
24904;DHT22;12960;50.322;11.124;2022-07-05T04:07:10;13.90;75.00
24904;DHT22;12960;50.322;11.124;2022-07-05T04:08:11;13.90;99.90
24904;DHT22;12960;50.322;11.124;2022-07-05T04:09:15;13.90;99.90
24904;DHT22;12960;50.322;11.124;2022-07-05T04:10:17;14.00;99.90
24904;DHT22;12960;50.322;11.124;2022-07-05T04:11:18;14.00;99.90
24904;DHT22;12960;50.322;11.124;2022-07-05T04:12:19;14.10;1.00
24904;DHT22;12960;50.322;11.124;2022-07-05T04:13:20;14.20;1.00
24904;DHT22;12960;50.322;11.124;2022-07-05T04:14:22;14.20;1.00
24904;DHT22;12960;50.322;11.124;2022-07-05T04:15:23;14.20;99.90
24904;DHT22;12960;50.322;11.124;2022-07-05T04:16:24;14.30;99.90
24904;DHT22;12960;50.322;11.124;2022-07-05T04:17:26;14.30;99.90
24904;DHT22;12960;50.322;11.124;2022-07-05T04:18:27;14.40;99.90
24904;DHT22;12960;50.322;11.124;2022-07-05T04:19:28;14.40;1.00
24904;DHT22;12960;50.322;11.124;2022-07-05T04:20:31;14.40;1.00
24904;DHT22;12960;50.322;11.124;2022-07-05T04:21:34;14.50;99.90
24904;DHT22;12960;50.322;11.124;2022-07-05T04:22:35;14.50;14.10
24904;DHT22;12960;50.322;11.124;2022-07-05T04:23:36;14.50;99.90
24904;DHT22;12960;50.322;11.124;2022-07-05T04:24:37;14.60;1.00
24904;DHT22;12960;50.322;11.124;2022-07-05T04:25:57;14.60;99.90
24904;DHT22;12960;50.322;11.124;2022-07-05T04:26:58;14.60;99.90
24904;DHT22;12960;50.322;11.124;2022-07-05T04:27:59;14.70;99.90
24904;DHT22;12960;50.322;11.124;2022-07-05T04:29:00;14.70;99.90
24904;DHT22;12960;50.322;11.124;2022-07-05T04:30:01;14.70;47.40
24904;DHT22;12960;50.322;11.124;2022-07-05T04:31:02;14.70;55.50
24904;DHT22;12960;50.322;11.124;2022-07-05T04:32:10;14.60;77.70
24904;DHT22;12960;50.322;11.124;2022-07-05T04:33:19;14.70;99.90
24904;DHT22;12960;50.322;11.124;2022-07-05T04:34:20;14.70;99.90
24904;DHT22;12960;50.322;11.124;2022-07-05T04:35:21;14.70;99.90
24904;DHT22;12960;50.322;11.124;2022-07-05T04:36:22;14.70;99.90
24904;DHT22;12960;50.322;11.124;2022-07-05T04:37:24;14.80;99.90
24904;DHT22;12960;50.322;11.124;2022-07-05T04:38:33;14.80;99.90
24904;DHT22;12960;50.322;11.124;2022-07-05T04:39:34;14.90;99.90
24904;DHT22;12960;50.322;11.124;2022-07-05T04:40:36;14.80;1.00
24904;DHT22;12960;50.322;11.124;2022-07-05T04:41:37;14.80;1.00
24904;DHT22;12960;50.322;11.124;2022-07-05T04:42:40;14.90;84.70
24904;DHT22;12960;50.322;11.124;2022-07-05T04:43:44;14.90;1.00
24904;DHT22;12960;50.322;11.124;2022-07-05T04:44:45;14.90;1.00
24904;DHT22;12960;50.322;11.124;2022-07-05T04:45:47;15.00;99.90
24904;DHT22;12960;50.322;11.124;2022-07-05T04:46:48;15.00;1.00
24904;DHT22;12960;50.322;11.124;2022-07-05T04:47:49;15.00;99.90
24904;DHT22;12960;50.322;11.124;2022-07-05T04:48:52;15.00;99.90
24904;DHT22;12960;50.322;11.124;2022-07-05T04:49:54;15.10;99.90
24904;DHT22;12960;50.322;11.124;2022-07-05T04:50:55;15.10;99.90
24904;DHT22;12960;50.322;11.124;2022-07-05T04:51:56;15.20;1.00
24904;DHT22;12960;50.322;11.124;2022-07-05T04:52:57;15.20;1.00
24904;DHT22;12960;50.322;11.124;2022-07-05T04:54:01;15.20;1.00
24904;DHT22;12960;50.322;11.124;2022-07-05T04:55:02;15.30;1.00
24904;DHT22;12960;50.322;11.124;2022-07-05T04:56:04;15.30;99.90
24904;DHT22;12960;50.322;11.124;2022-07-05T04:57:09;15.30;1.00
24904;DHT22;12960;50.322;11.124;2022-07-05T04:58:10;15.40;99.90
24904;DHT22;12960;50.322;11.124;2022-07-05T04:59:15;15.40;99.90
24904;DHT22;12960;50.322;11.124;2022-07-05T05:00:21;15.50;99.90
24904;DHT22;12960;50.322;11.124;2022-07-05T05:01:25;15.50;99.90
24904;DHT22;12960;50.322;11.124;2022-07-05T05:02:26;15.60;99.90
24904;DHT22;12960;50.322;11.124;2022-07-05T05:03:27;15.60;99.90
24904;DHT22;12960;50.322;11.124;2022-07-05T05:04:28;15.60;99.90
24904;DHT22;12960;50.322;11.124;2022-07-05T05:05:29;15.60;1.00
24904;DHT22;12960;50.322;11.124;2022-07-05T05:06:30;15.70;1.00
24904;DHT22;12960;50.322;11.124;2022-07-05T05:07:31;15.70;1.00
24904;DHT22;12960;50.322;11.124;2022-07-05T05:08:33;15.70;1.00
24904;DHT22;12960;50.322;11.124;2022-07-05T05:09:37;15.80;1.00
24904;DHT22;12960;50.322;11.124;2022-07-05T05:10:38;15.90;1.00
24904;DHT22;12960;50.322;11.124;2022-07-05T05:11:39;15.90;1.00
24904;DHT22;12960;50.322;11.124;2022-07-05T05:12:40;16.00;1.00
24904;DHT22;12960;50.322;11.124;2022-07-05T05:13:41;16.00;99.90
24904;DHT22;12960;50.322;11.124;2022-07-05T05:14:46;16.10;99.90
24904;DHT22;12960;50.322;11.124;2022-07-05T05:15:47;16.20;99.90
24904;DHT22;12960;50.322;11.124;2022-07-05T05:16:48;16.20;99.90
24904;DHT22;12960;50.322;11.124;2022-07-05T05:17:49;16.30;99.90
24904;DHT22;12960;50.322;11.124;2022-07-05T05:18:50;16.40;99.90
24904;DHT22;12960;50.322;11.124;2022-07-05T05:19:54;16.40;99.90
24904;DHT22;12960;50.322;11.124;2022-07-05T05:20:55;16.50;99.90
24904;DHT22;12960;50.322;11.124;2022-07-05T05:21:56;16.50;97.00
24904;DHT22;12960;50.322;11.124;2022-07-05T05:22:57;16.50;60.40
24904;DHT22;12960;50.322;11.124;2022-07-05T05:24:01;16.60;18.50
24904;DHT22;12960;50.322;11.124;2022-07-05T05:25:06;16.70;1.00
24904;DHT22;12960;50.322;11.124;2022-07-05T05:26:07;16.70;1.00
24904;DHT22;12960;50.322;11.124;2022-07-05T05:27:08;16.70;1.00
24904;DHT22;12960;50.322;11.124;2022-07-05T05:28:09;16.80;1.00
24904;DHT22;12960;50.322;11.124;2022-07-05T05:29:10;16.80;1.00
24904;DHT22;12960;50.322;11.124;2022-07-05T05:30:12;16.90;1.00
24904;DHT22;12960;50.322;11.124;2022-07-05T05:31:16;17.00;1.00
24904;DHT22;12960;50.322;11.124;2022-07-05T05:32:24;17.10;1.00
24904;DHT22;12960;50.322;11.124;2022-07-05T05:33:25;17.10;1.00
24904;DHT22;12960;50.322;11.124;2022-07-05T05:34:26;17.20;99.90
24904;DHT22;12960;50.322;11.124;2022-07-05T05:35:28;17.20;99.90
24904;DHT22;12960;50.322;11.124;2022-07-05T05:36:29;17.30;99.90
24904;DHT22;12960;50.322;11.124;2022-07-05T05:37:30;17.30;99.90
24904;DHT22;12960;50.322;11.124;2022-07-05T05:38:31;17.40;99.90
24904;DHT22;12960;50.322;11.124;2022-07-05T05:39:32;17.50;99.90
24904;DHT22;12960;50.322;11.124;2022-07-05T05:40:33;17.50;99.90
24904;DHT22;12960;50.322;11.124;2022-07-05T05:41:38;17.60;99.90
24904;DHT22;12960;50.322;11.124;2022-07-05T05:42:39;17.70;99.90
24904;DHT22;12960;50.322;11.124;2022-07-05T05:43:40;17.70;99.90
24904;DHT22;12960;50.322;11.124;2022-07-05T05:44:41;17.80;99.90
24904;DHT22;12960;50.322;11.124;2022-07-05T05:45:42;17.80;99.90
24904;DHT22;12960;50.322;11.124;2022-07-05T05:46:43;17.90;99.90
24904;DHT22;12960;50.322;11.124;2022-07-05T05:47:46;17.90;99.90
24904;DHT22;12960;50.322;11.124;2022-07-05T05:48:47;18.00;99.90
24904;DHT22;12960;50.322;11.124;2022-07-05T05:49:48;18.10;99.90
24904;DHT22;12960;50.322;11.124;2022-07-05T05:50:49;18.10;99.90
24904;DHT22;12960;50.322;11.124;2022-07-05T05:51:51;18.20;99.90
24904;DHT22;12960;50.322;11.124;2022-07-05T05:52:53;18.20;99.90
24904;DHT22;12960;50.322;11.124;2022-07-05T05:53:54;18.20;99.90
24904;DHT22;12960;50.322;11.124;2022-07-05T05:54:55;18.30;99.90
24904;DHT22;12960;50.322;11.124;2022-07-05T05:55:56;18.40;99.90
24904;DHT22;12960;50.322;11.124;2022-07-05T05:57:03;18.50;99.90
24904;DHT22;12960;50.322;11.124;2022-07-05T05:58:19;18.50;99.90
24904;DHT22;12960;50.322;11.124;2022-07-05T05:59:24;18.60;99.90
24904;DHT22;12960;50.322;11.124;2022-07-05T06:00:25;18.70;99.90
24904;DHT22;12960;50.322;11.124;2022-07-05T06:01:26;18.70;99.90
24904;DHT22;12960;50.322;11.124;2022-07-05T06:02:33;18.80;99.90
24904;DHT22;12960;50.322;11.124;2022-07-05T06:03:34;18.80;99.90
24904;DHT22;12960;50.322;11.124;2022-07-05T06:04:36;18.90;99.90
24904;DHT22;12960;50.322;11.124;2022-07-05T06:05:40;19.00;99.90
24904;DHT22;12960;50.322;11.124;2022-07-05T06:06:44;19.10;99.90
24904;DHT22;12960;50.322;11.124;2022-07-05T06:07:45;19.10;99.90
24904;DHT22;12960;50.322;11.124;2022-07-05T06:08:49;19.20;99.90
24904;DHT22;12960;50.322;11.124;2022-07-05T06:09:50;19.20;99.90
24904;DHT22;12960;50.322;11.124;2022-07-05T06:10:51;19.30;95.70
24904;DHT22;12960;50.322;11.124;2022-07-05T06:11:52;19.30;84.60
24904;DHT22;12960;50.322;11.124;2022-07-05T06:12:56;19.40;77.60
24904;DHT22;12960;50.322;11.124;2022-07-05T06:13:57;19.50;47.50
24904;DHT22;12960;50.322;11.124;2022-07-05T06:14:58;19.40;72.20
24904;DHT22;12960;50.322;11.124;2022-07-05T06:15:59;19.50;52.80
24904;DHT22;12960;50.322;11.124;2022-07-05T06:17:00;19.60;30.90
24904;DHT22;12960;50.322;11.124;2022-07-05T06:18:04;19.60;21.30
24904;DHT22;12960;50.322;11.124;2022-07-05T06:19:05;19.70;44.70
24904;DHT22;12960;50.322;11.124;2022-07-05T06:20:14;19.70;6.90
24904;DHT22;12960;50.322;11.124;2022-07-05T06:21:16;19.80;1.00
24904;DHT22;12960;50.322;11.124;2022-07-05T06:22:17;19.90;1.00
24904;DHT22;12960;50.322;11.124;2022-07-05T06:23:18;19.90;8.50
24904;DHT22;12960;50.322;11.124;2022-07-05T06:24:22;19.90;1.00
24904;DHT22;12960;50.322;11.124;2022-07-05T06:25:23;20.00;1.00
24904;DHT22;12960;50.322;11.124;2022-07-05T06:26:25;20.10;1.00
24904;DHT22;12960;50.322;11.124;2022-07-05T06:27:26;20.20;1.00
24904;DHT22;12960;50.322;11.124;2022-07-05T06:28:29;20.10;1.00
24904;DHT22;12960;50.322;11.124;2022-07-05T06:29:31;20.20;1.00
24904;DHT22;12960;50.322;11.124;2022-07-05T06:30:34;20.20;1.00